Terminal Aerodrome Forecast
Issued by NWS Sioux Falls, SD

Home | Current Version | Previous Version | Text Only | Print | Product List | Glossary On
Versions: 1 2 3 4 5 6 7 8 9 10 11 12 13 14 15 16 17 18
000
FTUS43 KFSD 290532
TAFHON
TAF
KHON 290532Z 2906/3006 VRB03KT 6SM BR BKN008
      TEMPO 2906/2909 4SM BR SCT008 OVC014
     FM290900 VRB03KT 2SM BR OVC005
     FM291400 VRB03KT 4SM BR OVC009
     FM291600 VRB05KT P6SM SCT015
     FM300000 33007KT P6SM BKN080
      TEMPO 3000/3003 SHRA=

USA.gov is the U.S. government's official web portal to all federal, state and local government web resources and services.